Time;durP1;ratioP1;P1;durP2;ratioP2;P2;SDS_P1;SDS_P2;PMS_P1;PMS_P2;Temp;Humidity;BMP_temperature;BMP_pressure;BME280_temperature;BME280_humidity;BME280_pressure;Samples;Min_cycle;Max_cycle;Signal;HPM_P1;HPM_P2
2022/12/20 00:00:52;;;;;;;10.57;9.47;;;5.90;99.90;;;;;;5055575;28;20433;-68
2022/12/20 00:03:19;;;;;;;12.33;10.13;;;5.90;99.90;;;;;;5037723;28;20761;-69
2022/12/20 00:05:45;;;;;;;11.87;10.50;;;5.70;99.90;;;;;;5055446;28;20166;-68
2022/12/20 00:08:11;;;;;;;11.10;9.83;;;5.60;99.90;;;;;;5055916;28;20401;-69
2022/12/20 00:10:38;;;;;;;12.40;10.13;;;5.60;99.90;;;;;;5036905;28;20437;-68
2022/12/20 00:13:04;;;;;;;13.43;10.13;;;5.70;99.90;;;;;;5055509;28;20409;-68
2022/12/20 00:15:30;;;;;;;10.07;9.10;;;5.80;99.90;;;;;;5037330;28;20417;-68
2022/12/20 00:17:56;;;;;;;11.07;10.00;;;5.80;99.90;;;;;;5055290;28;20934;-68
2022/12/20 00:20:22;;;;;;;10.63;9.50;;;5.80;99.90;;;;;;5054859;28;20273;-68
2022/12/20 00:22:48;;;;;;;13.37;9.50;;;5.90;99.90;;;;;;5055026;28;20501;-68
2022/12/20 00:25:13;;;;;;;12.37;11.03;;;5.80;99.90;;;;;;5054415;28;20485;-68
2022/12/20 00:27:39;;;;;;;9.43;8.43;;;5.80;99.90;;;;;;5054862;28;20172;-68
2022/12/20 00:30:06;;;;;;;11.60;10.40;;;5.70;99.90;;;;;;5055079;28;20256;-68
2022/12/20 00:32:31;;;;;;;12.07;9.90;;;5.60;99.90;;;;;;5055396;28;20175;-68
2022/12/20 00:34:57;;;;;;;12.17;10.97;;;5.50;99.90;;;;;;5055031;28;21016;-69
2022/12/20 00:37:22;;;;;;;10.70;9.50;;;5.40;99.90;;;;;;5054619;28;20570;-68
2022/12/20 00:39:48;;;;;;;13.40;9.87;;;5.50;99.90;;;;;;5053340;28;20575;-68
2022/12/20 00:42:14;;;;;;;11.73;10.53;;;5.40;99.90;;;;;;5055219;28;20159;-68
2022/12/20 00:44:40;;;;;;;12.10;10.07;;;5.30;99.90;;;;;;5051818;28;20198;-68
2022/12/20 00:47:05;;;;;;;13.63;12.17;;;5.40;99.90;;;;;;5054265;28;20405;-68
2022/12/20 00:49:31;;;;;;;13.50;11.30;;;5.50;99.90;;;;;;5054797;28;20849;-68
2022/12/20 00:51:57;;;;;;;12.80;11.50;;;5.50;99.90;;;;;;5054999;28;20179;-69
2022/12/20 00:54:22;;;;;;;12.23;10.70;;;5.50;99.90;;;;;;5036492;28;20175;-69
2022/12/20 00:56:48;;;;;;;14.73;10.57;;;5.50;99.90;;;;;;5054395;28;20203;-68
2022/12/20 00:59:13;;;;;;;12.57;10.93;;;5.50;99.90;;;;;;5054727;28;20186;-69
2022/12/20 01:01:39;;;;;;;10.50;9.50;;;5.60;99.90;;;;;;5054623;28;20260;-69
2022/12/20 01:04:04;;;;;;;13.10;10.67;;;5.50;99.90;;;;;;5054325;28;20167;-68
2022/12/20 01:06:31;;;;;;;10.40;9.40;;;5.60;99.90;;;;;;5054673;28;20213;-68
2022/12/20 01:08:57;;;;;;;11.50;10.07;;;5.70;99.90;;;;;;5036144;28;20176;-69
2022/12/20 01:11:28;;;;;;;13.07;10.93;;;5.80;99.90;;;;;;5054027;28;20429;-69
2022/12/20 01:13:56;;;;;;;12.27;10.90;;;5.80;99.90;;;;;;5054687;28;20455;-68
2022/12/20 01:16:24;;;;;;;11.90;10.70;;;5.70;99.90;;;;;;5054177;28;20449;-69
2022/12/20 01:18:51;;;;;;;13.10;10.93;;;5.80;99.90;;;;;;5054543;28;20764;-68
2022/12/20 01:21:18;;;;;;;13.73;11.50;;;5.90;99.90;;;;;;5054166;28;20432;-69
2022/12/20 01:23:44;;;;;;;11.60;10.13;;;6.00;99.90;;;;;;5054230;28;20405;-68
2022/12/20 01:26:13;;;;;;;12.97;11.60;;;6.00;99.90;;;;;;5053924;28;20416;-69
2022/12/20 01:28:41;;;;;;;12.63;10.23;;;6.20;99.90;;;;;;5054280;28;20954;-69
2022/12/20 01:31:09;;;;;;;16.67;11.90;;;6.20;99.90;;;;;;5053849;28;20474;-67
2022/12/20 01:33:35;;;;;;;11.30;10.00;;;6.20;99.90;;;;;;5053587;28;20548;-68
2022/12/20 01:36:05;;;;;;;15.00;11.60;;;6.10;99.90;;;;;;5053450;28;20592;-68
2022/12/20 01:38:31;;;;;;;12.70;10.53;;;6.00;99.90;;;;;;5054400;28;20416;-68
2022/12/20 01:40:58;;;;;;;11.20;10.03;;;5.90;99.90;;;;;;5052563;28;20486;-67
2022/12/20 01:43:25;;;;;;;12.40;10.80;;;5.90;99.90;;;;;;5035963;28;20416;-69
2022/12/20 01:45:51;;;;;;;12.10;10.80;;;6.00;99.90;;;;;;5053406;28;20864;-68
2022/12/20 01:48:23;;;;;;;12.87;11.10;;;6.00;99.90;;;;;;5053628;28;20522;-68
2022/12/20 01:50:50;;;;;;;11.70;10.50;;;5.90;99.90;;;;;;5035598;28;20191;-68
2022/12/20 01:53:18;;;;;;;14.13;12.20;;;5.80;99.90;;;;;;5053453;28;20912;-68
2022/12/20 01:55:46;;;;;;;11.80;10.70;;;5.80;99.90;;;;;;5034988;28;20453;-68
2022/12/20 01:58:14;;;;;;;12.47;9.57;;;5.80;99.90;;;;;;5053260;28;20778;-68
2022/12/20 02:00:39;;;;;;;11.97;9.50;;;5.70;99.90;;;;;;5053591;28;20444;-68
2022/12/20 02:03:11;;;;;;;15.17;12.67;;;5.90;99.90;;;;;;5053587;28;20397;-68
2022/12/20 02:05:46;;;;;;;12.83;11.43;;;5.80;99.90;;;;;;5053924;28;20707;-65
2022/12/20 02:08:14;;;;;;;16.00;11.90;;;5.80;99.90;;;;;;5054057;28;20389;-68
2022/12/20 02:11:00;;;;;;;12.50;11.23;;;5.70;99.90;;;;;;5052783;28;20846;-68
2022/12/20 02:13:44;;;;;;;14.23;11.60;;;5.70;99.90;;;;;;5012908;28;20405;-68
2022/12/20 02:16:14;;;;;;;15.83;13.33;;;5.70;99.90;;;;;;5053544;28;20553;-66
2022/12/20 02:18:47;;;;;;;14.73;12.60;;;5.70;99.90;;;;;;5053290;28;20392;-68
2022/12/20 02:21:38;;;;;;;12.60;11.23;;;5.80;99.90;;;;;;5053102;28;20771;-68
2022/12/20 02:24:28;;;;;;;12.53;11.20;;;5.80;99.90;;;;;;5052781;28;20393;-68
2022/12/20 02:27:28;;;;;;;13.43;11.00;;;5.70;99.90;;;;;;5052761;28;20395;-68
2022/12/20 02:30:06;;;;;;;13.80;12.40;;;5.60;99.90;;;;;;5010799;28;20809;-68
2022/12/20 02:32:59;;;;;;;11.33;10.17;;;5.70;99.90;;;;;;5053018;28;20404;-68
2022/12/20 02:35:29;;;;;;;13.20;11.53;;;5.70;99.90;;;;;;5034806;28;20412;-68
2022/12/20 02:37:58;;;;;;;13.63;12.23;;;5.70;99.90;;;;;;5049238;28;20398;-68
2022/12/20 02:40:28;;;;;;;13.07;11.77;;;5.60;99.90;;;;;;5051637;28;20477;-68
2022/12/20 02:43:03;;;;;;;12.80;11.43;;;5.70;99.90;;;;;;5053492;28;20443;-68
2022/12/20 02:45:34;;;;;;;14.03;11.67;;;5.80;99.90;;;;;;5035218;28;20491;-68
2022/12/20 02:48:10;;;;;;;14.53;12.43;;;5.80;99.90;;;;;;5035012;28;20438;-68
2022/12/20 02:50:39;;;;;;;14.67;12.93;;;5.70;99.90;;;;;;5052989;28;20472;-68
2022/12/20 02:53:06;;;;;;;12.60;11.40;;;5.70;99.90;;;;;;5053156;28;20420;-68
2022/12/20 02:55:45;;;;;;;12.00;10.37;;;5.70;99.90;;;;;;5052296;28;20393;-68
2022/12/20 02:58:21;;;;;;;13.27;11.90;;;5.70;99.90;;;;;;5053072;28;20445;-68
2022/12/20 03:00:49;;;;;;;13.80;11.37;;;5.70;99.90;;;;;;5052733;28;20419;-68
2022/12/20 03:03:21;;;;;;;11.00;9.90;;;5.70;99.90;;;;;;5052677;28;20405;-68
2022/12/20 03:05:49;;;;;;;14.80;12.40;;;5.60;99.90;;;;;;5053641;28;20396;-69
2022/12/20 03:08:15;;;;;;;14.67;11.53;;;5.60;99.90;;;;;;5052831;28;20408;-68
2022/12/20 03:10:41;;;;;;;14.57;11.53;;;5.70;99.90;;;;;;5054796;28;20434;-68
2022/12/20 03:13:07;;;;;;;13.50;12.13;;;5.80;99.90;;;;;;5056548;28;20409;-68
2022/12/20 03:15:32;;;;;;;13.37;11.87;;;5.90;99.90;;;;;;5038383;28;20176;-68
2022/12/20 03:17:58;;;;;;;12.83;11.47;;;5.90;99.90;;;;;;5056589;28;20171;-68
2022/12/20 03:20:24;;;;;;;12.90;11.50;;;6.00;99.90;;;;;;5056096;28;20188;-68
2022/12/20 03:22:49;;;;;;;11.10;9.50;;;6.00;99.90;;;;;;5056171;28;20175;-69
2022/12/20 03:25:15;;;;;;;13.40;12.00;;;6.00;99.90;;;;;;5055976;28;20401;-68
2022/12/20 03:27:41;;;;;;;10.73;9.53;;;6.00;99.90;;;;;;5056457;28;20179;-68
2022/12/20 03:30:07;;;;;;;16.80;13.70;;;6.00;99.90;;;;;;5055957;28;20195;-68
2022/12/20 03:32:32;;;;;;;12.90;11.10;;;6.10;99.90;;;;;;5056155;28;20168;-67
2022/12/20 03:34:58;;;;;;;14.37;12.87;;;6.20;99.90;;;;;;5056542;28;20456;-67
2022/12/20 03:37:24;;;;;;;15.40;12.80;;;6.10;99.90;;;;;;5055872;28;20564;-68
2022/12/20 03:39:49;;;;;;;18.23;14.00;;;6.20;99.90;;;;;;5037441;28;20253;-68
2022/12/20 03:42:15;;;;;;;15.63;13.27;;;6.10;99.90;;;;;;5092990;22;20260;-70
2022/12/20 03:44:41;;;;;;;14.70;13.23;;;6.20;99.90;;;;;;5076115;28;20243;-70
2022/12/20 03:47:06;;;;;;;14.83;12.23;;;6.20;99.90;;;;;;5075424;28;20169;-70
2022/12/20 03:49:32;;;;;;;16.17;13.93;;;6.30;99.90;;;;;;5075711;28;20174;-70
2022/12/20 03:51:57;;;;;;;14.63;13.03;;;6.20;99.90;;;;;;5075847;28;20196;-70
2022/12/20 03:54:23;;;;;;;14.67;13.10;;;6.20;99.90;;;;;;5075581;28;20179;-70
2022/12/20 03:56:48;;;;;;;13.93;12.33;;;6.40;99.90;;;;;;5075484;28;20199;-70
2022/12/20 03:59:14;;;;;;;12.33;11.10;;;6.40;99.90;;;;;;5076012;28;20242;-70
2022/12/20 04:01:40;;;;;;;13.03;11.63;;;6.60;99.90;;;;;;5075310;28;20221;-70
2022/12/20 04:04:06;;;;;;;13.57;12.20;;;6.70;99.90;;;;;;5075346;28;20398;-70
2022/12/20 04:06:32;;;;;;;12.13;10.90;;;6.80;99.90;;;;;;5075585;28;20645;-70
2022/12/20 04:08:57;;;;;;;11.77;9.67;;;6.80;99.90;;;;;;5075588;28;20445;-70
2022/12/20 04:11:23;;;;;;;10.83;9.83;;;6.70;99.90;;;;;;5075267;28;20555;-70
2022/12/20 04:13:51;;;;;;;12.07;10.87;;;6.60;99.90;;;;;;5075197;28;20204;-70
2022/12/20 04:16:20;;;;;;;11.60;10.40;;;6.80;99.90;;;;;;5074860;28;20230;-71
2022/12/20 04:18:45;;;;;;;12.87;10.80;;;7.00;99.90;;;;;;5075098;28;20441;-71
2022/12/20 04:21:12;;;;;;;12.10;10.80;;;7.10;99.90;;;;;;5073879;28;20427;-72
2022/12/20 04:23:39;;;;;;;12.97;11.33;;;7.10;99.90;;;;;;5075021;28;20180;-71
2022/12/20 04:26:06;;;;;;;13.37;10.70;;;7.10;99.90;;;;;;5074820;28;20421;-71
2022/12/20 04:28:33;;;;;;;10.43;9.33;;;7.20;99.90;;;;;;5074961;28;20411;-71
2022/12/20 04:30:59;;;;;;;13.10;11.30;;;7.00;99.90;;;;;;5074659;28;20755;-71
2022/12/20 04:33:25;;;;;;;12.50;9.93;;;7.00;99.90;;;;;;5074824;28;20934;-71
2022/12/20 04:35:51;;;;;;;10.63;9.47;;;7.10;99.90;;;;;;5075064;28;20543;-71
2022/12/20 04:38:18;;;;;;;11.40;9.40;;;7.20;99.90;;;;;;5074907;28;20405;-71
2022/12/20 04:40:44;;;;;;;9.87;8.87;;;7.20;99.90;;;;;;5072285;28;20422;-71
2022/12/20 04:43:10;;;;;;;11.83;10.00;;;7.20;99.90;;;;;;5075198;28;20394;-71
2022/12/20 04:45:35;;;;;;;10.57;9.30;;;7.10;99.90;;;;;;5074629;28;20196;-71
2022/12/20 04:48:01;;;;;;;11.40;10.23;;;7.00;99.90;;;;;;5074669;28;20167;-71
2022/12/20 04:50:26;;;;;;;10.90;9.80;;;7.00;99.90;;;;;;5074551;28;20160;-71
2022/12/20 04:55:37;;;;;;;13.83;11.00;;;7.10;99.90;;;;;;5074060;28;20215;-71
2022/12/20 04:58:03;;;;;;;13.60;9.63;;;7.10;99.90;;;;;;5072716;28;20495;-71
2022/12/20 05:00:29;;;;;;;10.70;9.20;;;7.10;99.90;;;;;;5089955;28;20906;-71
2022/12/20 05:02:54;;;;;;;10.60;9.50;;;7.10;99.90;;;;;;5074860;28;20243;-71
2022/12/20 05:05:20;;;;;;;11.03;9.90;;;7.10;99.90;;;;;;5074981;28;20173;-71
2022/12/20 05:07:45;;;;;;;12.00;10.80;;;7.20;99.90;;;;;;5074564;28;20195;-70
2022/12/20 05:10:11;;;;;;;10.60;9.50;;;7.10;99.90;;;;;;5074311;28;20196;-70
2022/12/20 05:12:37;;;;;;;10.97;9.90;;;7.30;99.90;;;;;;5074013;28;20188;-70
2022/12/20 05:15:03;;;;;;;11.23;9.80;;;7.30;99.90;;;;;;5074012;28;20176;-70
2022/12/20 05:17:29;;;;;;;11.37;10.27;;;7.30;99.90;;;;;;5074102;28;20235;-70
2022/12/20 05:19:54;;;;;;;11.17;10.07;;;7.10;99.90;;;;;;5074147;28;20405;-70
2022/12/20 05:27:48;;;;;;;10.17;9.17;;;7.30;99.90;;;;;;5068786;28;20821;-70
2022/12/20 05:30:15;;;;;;;10.10;8.80;;;7.40;99.90;;;;;;5073738;28;20411;-70
2022/12/20 05:32:40;;;;;;;10.40;8.87;;;7.40;99.90;;;;;;5073230;28;20189;-70
2022/12/20 05:35:07;;;;;;;9.57;8.60;;;7.40;99.90;;;;;;5073949;28;20912;-70
2022/12/20 05:37:32;;;;;;;10.23;9.30;;;7.40;99.90;;;;;;5072141;28;20191;-70
2022/12/20 05:39:58;;;;;;;9.00;8.10;;;7.40;99.90;;;;;;5072045;28;20924;-70
2022/12/20 05:42:23;;;;;;;10.20;8.10;;;7.40;99.90;;;;;;5072634;28;20584;-70
2022/12/20 05:44:50;;;;;;;9.43;8.50;;;7.30;99.90;;;;;;5073384;28;20173;-69
2022/12/20 05:47:16;;;;;;;10.20;8.90;;;7.20;99.90;;;;;;5073371;28;20199;-71
2022/12/20 05:49:41;;;;;;;8.03;7.27;;;7.10;99.90;;;;;;5073256;28;20487;-71
2022/12/20 05:52:07;;;;;;;9.83;8.80;;;7.20;99.90;;;;;;5073240;28;20563;-70
2022/12/20 05:54:32;;;;;;;8.63;7.50;;;7.10;99.90;;;;;;5073276;28;20635;-70
2022/12/20 05:56:58;;;;;;;8.90;7.60;;;7.10;99.90;;;;;;5073040;28;20276;-70
2022/12/20 05:59:24;;;;;;;13.10;9.03;;;7.20;99.90;;;;;;5073043;28;20155;-70
2022/12/20 06:01:49;;;;;;;9.83;8.73;;;7.30;99.90;;;;;;5073135;28;20188;-70
2022/12/20 06:04:15;;;;;;;8.10;7.30;;;7.20;99.90;;;;;;5073363;28;20705;-70
2022/12/20 06:06:40;;;;;;;9.23;8.00;;;7.30;99.90;;;;;;5073685;28;20571;-70
2022/12/20 06:09:06;;;;;;;8.53;7.30;;;7.30;99.90;;;;;;5073846;28;20175;-70
2022/12/20 06:11:31;;;;;;;8.37;7.40;;;7.20;99.90;;;;;;5073283;28;20230;-70
2022/12/20 06:13:58;;;;;;;9.93;8.87;;;7.20;99.90;;;;;;5073478;28;20195;-70
2022/12/20 06:16:24;;;;;;;11.53;8.80;;;7.20;99.90;;;;;;5073221;28;20200;-70
2022/12/20 06:18:50;;;;;;;8.57;7.47;;;7.20;99.90;;;;;;5073159;28;20399;-70
2022/12/20 06:21:16;;;;;;;8.50;7.60;;;7.20;99.90;;;;;;5073180;28;20429;-70
2022/12/20 06:23:42;;;;;;;10.73;9.67;;;7.20;99.90;;;;;;5072939;28;20530;-70
2022/12/20 06:26:10;;;;;;;16.53;15.07;;;7.10;99.90;;;;;;5071146;28;20412;-70
2022/12/20 06:28:41;;;;;;;9.00;8.20;;;7.10;99.90;;;;;;5072846;28;20548;-70
2022/12/20 06:31:09;;;;;;;12.33;8.23;;;7.10;99.90;;;;;;5072950;28;20427;-70
2022/12/20 06:33:34;;;;;;;8.90;8.00;;;7.10;99.90;;;;;;5072939;28;20419;-70
2022/12/20 06:36:00;;;;;;;8.93;7.60;;;7.10;99.90;;;;;;5072247;28;20446;-71
2022/12/20 06:38:26;;;;;;;8.87;7.20;;;7.10;99.90;;;;;;5072856;28;20406;-71
2022/12/20 06:40:51;;;;;;;9.70;7.50;;;7.30;99.90;;;;;;5070988;28;20753;-70
2022/12/20 06:43:17;;;;;;;9.80;7.93;;;7.20;99.90;;;;;;5072964;28;20221;-71
2022/12/20 06:45:42;;;;;;;7.23;6.37;;;7.10;99.90;;;;;;5075551;28;20239;-70
2022/12/20 06:48:09;;;;;;;8.73;7.83;;;7.10;99.90;;;;;;5076279;28;20167;-71
2022/12/20 06:50:34;;;;;;;11.67;8.40;;;7.10;99.90;;;;;;5076638;28;20197;-71
2022/12/20 06:53:00;;;;;;;10.20;9.30;;;7.10;99.90;;;;;;5075286;28;20410;-71
2022/12/20 06:55:25;;;;;;;9.30;8.50;;;7.20;99.90;;;;;;5076354;28;21069;-71
2022/12/20 06:57:51;;;;;;;8.80;7.90;;;7.20;99.90;;;;;;5075789;28;20185;-70
2022/12/20 07:00:17;;;;;;;10.77;9.33;;;7.00;99.90;;;;;;5076802;28;20597;-70
2022/12/20 07:02:44;;;;;;;12.23;10.60;;;6.90;99.90;;;;;;5076150;28;20234;-70
2022/12/20 07:05:09;;;;;;;11.53;10.13;;;6.90;99.90;;;;;;5076173;28;20409;-70
2022/12/20 07:11:06;;;;;;;10.80;9.70;;;7.10;99.90;;;;;;5075987;28;20615;-71
2022/12/20 07:13:32;;;;;;;8.40;7.60;;;7.00;99.90;;;;;;5076562;28;20396;-70
2022/12/20 07:15:59;;;;;;;10.67;9.30;;;7.10;99.90;;;;;;5076271;28;20435;-70
2022/12/20 07:18:25;;;;;;;9.27;8.37;;;7.10;99.90;;;;;;5075775;28;20505;-71
2022/12/20 07:20:50;;;;;;;9.70;8.33;;;7.00;99.90;;;;;;5076074;28;20501;-70
2022/12/20 07:23:17;;;;;;;7.43;6.73;;;7.10;99.90;;;;;;5076107;28;20688;-70
2022/12/20 07:25:43;;;;;;;9.13;7.83;;;7.10;99.90;;;;;;5075928;28;20539;-70
2022/12/20 07:28:08;;;;;;;10.80;8.90;;;7.10;99.90;;;;;;5075138;28;20422;-70
2022/12/20 07:30:35;;;;;;;8.93;8.00;;;7.20;99.90;;;;;;5075852;28;20162;-70
2022/12/20 07:33:01;;;;;;;9.63;8.67;;;7.30;99.90;;;;;;5075938;28;20164;-69
2022/12/20 07:35:26;;;;;;;9.93;8.80;;;7.30;99.90;;;;;;5075616;28;20407;-70
2022/12/20 07:37:52;;;;;;;10.27;9.27;;;7.30;99.90;;;;;;5075810;28;20340;-71
2022/12/20 07:40:17;;;;;;;10.83;8.70;;;7.40;99.90;;;;;;5074487;28;20175;-70
2022/12/20 07:42:43;;;;;;;12.87;9.47;;;7.40;99.90;;;;;;5075596;28;20310;-70
2022/12/20 07:45:09;;;;;;;12.67;8.57;;;7.40;99.90;;;;;;5075751;28;20186;-71
2022/12/20 07:47:34;;;;;;;11.27;9.50;;;7.50;99.90;;;;;;5074329;28;20497;-70
2022/12/20 07:50:00;;;;;;;11.90;8.20;;;7.50;99.90;;;;;;5075598;28;20174;-70
2022/12/20 07:52:28;;;;;;;10.10;7.93;;;7.60;99.90;;;;;;5075554;28;20726;-71
2022/12/20 07:54:59;;;;;;;8.90;8.00;;;7.70;99.90;;;;;;5075433;28;20407;-70
2022/12/20 07:57:33;;;;;;;9.13;7.90;;;7.80;99.90;;;;;;5075181;28;20462;-70
2022/12/20 08:00:00;;;;;;;12.37;9.00;;;7.90;99.90;;;;;;5075500;28;20398;-70
2022/12/20 08:02:38;;;;;;;12.20;8.93;;;8.00;99.90;;;;;;5075608;28;20506;-71
2022/12/20 08:05:06;;;;;;;9.93;8.90;;;8.00;99.90;;;;;;5075588;28;20390;-70
2022/12/20 08:07:32;;;;;;;11.70;10.00;;;8.10;99.90;;;;;;5075588;28;20472;-70
2022/12/20 08:09:58;;;;;;;11.27;8.80;;;8.20;99.90;;;;;;5074963;28;20418;-71
2022/12/20 08:12:27;;;;;;;9.77;8.33;;;8.20;99.90;;;;;;5074888;28;20996;-69
2022/12/20 08:14:55;;;;;;;9.37;8.47;;;8.30;99.90;;;;;;5075247;28;20179;-71
2022/12/20 08:17:21;;;;;;;9.13;7.83;;;8.30;99.90;;;;;;5075240;28;20454;-71
2022/12/20 08:19:47;;;;;;;9.23;7.23;;;8.20;99.90;;;;;;5075164;28;20419;-71
2022/12/20 08:22:13;;;;;;;12.10;6.93;;;8.40;99.90;;;;;;5075249;28;20431;-71
2022/12/20 08:24:39;;;;;;;9.43;7.73;;;8.50;99.90;;;;;;5075366;28;20403;-72
2022/12/20 08:27:04;;;;;;;8.80;7.43;;;8.50;99.90;;;;;;5074693;28;20750;-71
2022/12/20 08:29:30;;;;;;;7.83;7.13;;;8.50;99.90;;;;;;5074963;28;20177;-71
2022/12/20 08:31:56;;;;;;;8.77;7.70;;;8.60;99.90;;;;;;5074874;28;20723;-71
2022/12/20 08:34:21;;;;;;;8.40;7.57;;;8.60;99.90;;;;;;5075546;28;20248;-71
2022/12/20 08:36:47;;;;;;;10.07;7.50;;;8.60;99.90;;;;;;5075792;28;20194;-71
2022/12/20 08:39:13;;;;;;;7.93;7.13;;;8.60;99.90;;;;;;5075760;28;20534;-71
2022/12/20 08:41:38;;;;;;;8.17;7.33;;;8.80;99.90;;;;;;5072876;28;20593;-70
2022/12/20 08:44:05;;;;;;;11.63;8.60;;;9.00;99.90;;;;;;5075195;28;20627;-70
2022/12/20 08:46:30;;;;;;;10.77;8.60;;;9.00;99.90;;;;;;5074834;28;20166;-70
2022/12/20 08:48:56;;;;;;;8.27;7.30;;;9.10;99.90;;;;;;5074831;28;20401;-70
2022/12/20 08:51:21;;;;;;;7.30;6.50;;;9.20;99.90;;;;;;5074334;28;20224;-70
2022/12/20 08:53:47;;;;;;;10.63;8.07;;;9.30;99.90;;;;;;5074300;28;20536;-70
2022/12/20 08:56:15;;;;;;;7.63;6.67;;;9.30;99.90;;;;;;5073458;28;20186;-70
2022/12/20 08:58:42;;;;;;;7.70;6.17;;;9.30;99.90;;;;;;5074244;28;20166;-70
2022/12/20 09:01:14;;;;;;;6.57;5.90;;;9.50;99.90;;;;;;5074281;28;21019;-70
2022/12/20 09:03:41;;;;;;;6.53;5.87;;;9.60;99.90;;;;;;5074156;28;20782;-70
2022/12/20 09:06:12;;;;;;;7.87;6.30;;;9.80;99.90;;;;;;5074105;28;20410;-70
2022/12/20 09:08:38;;;;;;;7.13;5.53;;;9.70;99.90;;;;;;5073739;28;20439;-71
2022/12/20 09:11:10;;;;;;;7.97;5.77;;;9.60;99.90;;;;;;5073384;28;20473;-70
2022/12/20 09:13:36;;;;;;;8.40;6.63;;;9.60;99.90;;;;;;5074361;28;20392;-70
2022/12/20 09:16:04;;;;;;;8.50;5.67;;;9.50;99.90;;;;;;5073819;28;20524;-70
2022/12/20 09:18:30;;;;;;;8.70;6.57;;;9.60;99.90;;;;;;5073790;28;20179;-70
2022/12/20 09:20:59;;;;;;;7.37;6.20;;;9.70;99.90;;;;;;5073983;28;20463;-71
2022/12/20 09:23:25;;;;;;;9.93;6.67;;;9.70;99.90;;;;;;5073746;28;20450;-70
2022/12/20 09:25:50;;;;;;;6.10;5.50;;;9.70;99.90;;;;;;5072935;28;20407;-71
2022/12/20 09:28:16;;;;;;;8.03;5.80;;;9.70;99.90;;;;;;5073528;28;20166;-70
2022/12/20 09:30:41;;;;;;;7.87;6.00;;;9.80;99.90;;;;;;5073655;28;20164;-71
2022/12/20 09:33:07;;;;;;;9.07;6.77;;;9.90;99.90;;;;;;5074434;28;20163;-72
2022/12/20 09:35:33;;;;;;;10.70;7.60;;;9.60;99.90;;;;;;5073545;28;20166;-70
2022/12/20 09:37:59;;;;;;;7.70;6.40;;;9.60;99.90;;;;;;5073408;28;20346;-71
2022/12/20 09:40:31;;;;;;;7.53;6.10;;;9.80;99.90;;;;;;5072224;28;20597;-71
2022/12/20 09:42:57;;;;;;;11.70;6.63;;;9.80;99.90;;;;;;5088730;22;20858;-67
2022/12/20 09:45:34;;;;;;;7.70;6.50;;;10.10;99.90;;;;;;5073385;28;20454;-66
2022/12/20 09:48:00;;;;;;;8.40;6.37;;;10.20;99.90;;;;;;5053696;28;20503;-68
2022/12/20 09:50:49;;;;;;;8.60;6.27;;;10.00;99.90;;;;;;5053625;28;20437;-68
2022/12/20 09:53:45;;;;;;;13.53;7.47;;;10.00;99.90;;;;;;5033580;28;20670;-70
2022/12/20 09:56:26;;;;;;;7.33;6.60;;;10.20;99.90;;;;;;5033626;28;20819;-68
2022/12/20 09:59:03;;;;;;;7.87;6.67;;;10.50;99.90;;;;;;5032445;28;20421;-69
2022/12/20 10:01:32;;;;;;;8.70;6.50;;;10.50;99.90;;;;;;5032163;28;20424;-69
2022/12/20 10:04:01;;;;;;;10.67;7.17;;;10.60;99.90;;;;;;5033449;28;20409;-69
2022/12/20 10:06:45;;;;;;;10.00;7.10;;;10.80;99.90;;;;;;5033642;28;20408;-69
2022/12/20 10:09:55;;;;;;;7.03;6.33;;;10.70;99.90;;;;;;5032191;28;20443;-69
2022/12/20 10:12:29;;;;;;;6.43;4.73;;;10.30;99.90;;;;;;5033198;28;20432;-70
2022/12/20 10:15:19;;;;;;;8.23;6.00;;;10.30;99.90;;;;;;5033610;28;20831;-67
2022/12/20 10:17:57;;;;;;;9.80;6.73;;;10.30;99.90;;;;;;5051600;28;20448;-68
2022/12/20 10:20:53;;;;;;;5.67;4.93;;;10.40;99.90;;;;;;5053641;28;20881;-70
2022/12/20 10:23:49;;;;;;;7.17;5.70;;;10.40;99.90;;;;;;5051879;28;20422;-68
2022/12/20 10:26:14;;;;;;;6.47;5.27;;;10.30;99.90;;;;;;5052994;28;20455;-68
2022/12/20 10:28:40;;;;;;;7.50;5.43;;;10.50;99.90;;;;;;5053358;28;20407;-68
2022/12/20 10:31:11;;;;;;;15.80;6.53;;;10.70;99.90;;;;;;5053486;28;20264;-68
2022/12/20 10:33:36;;;;;;;6.70;5.30;;;10.80;99.90;;;;;;5052244;28;20586;-69
2022/12/20 10:36:22;;;;;;;7.37;5.70;;;10.70;99.90;;;;;;5053587;28;20476;-69
2022/12/20 10:38:50;;;;;;;6.40;5.80;;;10.80;99.90;;;;;;5053397;28;20163;-69
2022/12/20 10:41:22;;;;;;;5.60;4.97;;;10.90;99.90;;;;;;5051166;28;20477;-68
2022/12/20 10:43:55;;;;;;;10.37;5.90;;;10.90;99.90;;;;;;5053645;28;20460;-68
2022/12/20 10:46:21;;;;;;;5.37;4.40;;;10.90;99.90;;;;;;5051812;28;20402;-69
2022/12/20 10:48:49;;;;;;;8.33;5.70;;;10.50;99.90;;;;;;5050208;28;20808;-68
2022/12/20 10:51:18;;;;;;;5.67;4.70;;;10.20;99.90;;;;;;5053577;28;20434;-68
2022/12/20 10:53:56;;;;;;;7.80;5.67;;;10.20;99.90;;;;;;5053786;28;20794;-68
2022/12/20 10:56:26;;;;;;;6.80;4.80;;;10.30;99.90;;;;;;5052786;28;20467;-68
2022/12/20 10:59:14;;;;;;;6.43;5.70;;;10.40;99.90;;;;;;5053256;28;20412;-67
2022/12/20 11:01:43;;;;;;;7.93;5.20;;;10.60;99.90;;;;;;5053101;28;20818;-69
2022/12/20 11:04:31;;;;;;;5.80;5.20;;;10.70;99.90;;;;;;5051758;28;20504;-68
2022/12/20 11:06:57;;;;;;;5.27;4.70;;;10.70;99.90;;;;;;5053011;28;20476;-68
2022/12/20 11:09:30;;;;;;;6.43;5.83;;;10.80;99.90;;;;;;5051587;28;20409;-69
2022/12/20 11:12:14;;;;;;;6.27;5.73;;;10.90;99.90;;;;;;5052666;28;20429;-69
2022/12/20 11:14:41;;;;;;;6.53;5.43;;;10.90;99.90;;;;;;5051597;28;20514;-68
2022/12/20 11:17:21;;;;;;;8.53;5.80;;;10.70;99.90;;;;;;5052847;28;20480;-68
2022/12/20 11:20:20;;;;;;;8.37;6.03;;;10.70;99.90;;;;;;5053197;28;20421;-68
2022/12/20 11:23:26;;;;;;;8.50;5.70;;;10.80;99.90;;;;;;5053163;28;20482;-69
2022/12/20 11:26:29;;;;;;;7.17;6.47;;;11.00;99.90;;;;;;4955326;28;20511;-68
2022/12/20 11:29:10;;;;;;;8.70;6.37;;;11.10;99.90;;;;;;5051077;28;20426;-68
2022/12/20 11:32:00;;;;;;;9.07;6.30;;;11.10;99.90;;;;;;5055785;28;20455;-68
2022/12/20 11:35:09;;;;;;;9.10;6.73;;;11.20;99.90;;;;;;5056279;28;20490;-68
2022/12/20 11:38:01;;;;;;;12.63;8.40;;;11.10;99.90;;;;;;5047637;28;20461;-68
2022/12/20 11:40:39;;;;;;;8.90;7.57;;;11.20;99.90;;;;;;5055277;28;20410;-69
2022/12/20 11:43:40;;;;;;;9.30;7.43;;;11.20;99.90;;;;;;5056101;28;20495;-67
2022/12/20 11:46:16;;;;;;;8.33;7.40;;;11.20;99.90;;;;;;5054946;28;20411;-69
2022/12/20 11:49:15;;;;;;;8.80;8.00;;;11.20;99.90;;;;;;5055237;28;20435;-69
2022/12/20 11:51:46;;;;;;;9.50;8.50;;;11.20;99.90;;;;;;5055668;28;20421;-69
2022/12/20 11:54:27;;;;;;;9.10;8.20;;;11.10;99.90;;;;;;5056127;28;20477;-69
2022/12/20 11:57:00;;;;;;;9.67;8.60;;;11.10;99.90;;;;;;5055346;28;20884;-69
2022/12/20 11:59:48;;;;;;;9.97;8.47;;;11.10;99.90;;;;;;5055984;28;20391;-68
2022/12/20 12:02:25;;;;;;;9.53;7.63;;;11.20;99.90;;;;;;5055708;28;20435;-68
2022/12/20 12:05:16;;;;;;;8.43;7.00;;;11.20;99.90;;;;;;5054497;28;20459;-69
2022/12/20 12:07:46;;;;;;;7.67;6.50;;;11.20;99.90;;;;;;5070652;28;20418;-69
2022/12/20 12:10:22;;;;;;;6.70;6.00;;;11.20;99.90;;;;;;5056043;28;20379;-68
2022/12/20 12:13:17;;;;;;;7.67;6.30;;;11.10;99.90;;;;;;5055259;28;20475;-69
2022/12/20 12:16:11;;;;;;;7.00;6.40;;;11.10;99.90;;;;;;5048950;28;20411;-68
2022/12/20 12:18:39;;;;;;;8.47;6.87;;;10.70;99.90;;;;;;5055714;28;20420;-69
2022/12/20 12:21:17;;;;;;;9.63;7.03;;;10.70;99.90;;;;;;5055588;28;20409;-68
2022/12/20 12:24:14;;;;;;;9.03;7.13;;;10.70;99.90;;;;;;5055705;28;20373;-68
2022/12/20 12:26:40;;;;;;;11.17;7.00;;;10.70;99.90;;;;;;5054949;28;20381;-69
2022/12/20 12:29:12;;;;;;;9.07;7.70;;;10.60;99.90;;;;;;5055424;28;20444;-69
2022/12/20 12:31:39;;;;;;;11.87;8.77;;;10.70;99.90;;;;;;5055960;28;20212;-69
2022/12/20 12:34:17;;;;;;;9.73;7.53;;;10.60;99.90;;;;;;5053984;28;20940;-70
2022/12/20 12:36:54;;;;;;;9.73;7.53;;;10.60;99.90;;;;;;5055375;28;20432;-68
2022/12/20 12:39:48;;;;;;;9.10;7.70;;;10.60;99.90;;;;;;5053877;28;20413;-69
2022/12/20 12:42:41;;;;;;;9.27;7.33;;;10.70;99.90;;;;;;5032966;28;20826;-68
2022/12/20 12:45:25;;;;;;;9.97;9.03;;;10.70;99.90;;;;;;5046297;28;20404;-68
2022/12/20 12:47:59;;;;;;;9.00;7.93;;;10.80;99.90;;;;;;5055520;28;20389;-69
2022/12/20 12:50:38;;;;;;;9.50;8.17;;;10.70;99.90;;;;;;5055806;28;20427;-67
2022/12/20 12:53:40;;;;;;;9.00;7.87;;;11.00;99.90;;;;;;5055015;28;20462;-69
2022/12/20 12:56:24;;;;;;;6.90;6.23;;;11.10;99.90;;;;;;5054356;28;20852;-68
2022/12/20 12:59:38;;;;;;;7.13;6.43;;;11.20;99.90;;;;;;5053909;28;20425;-69
2022/12/20 13:02:16;;;;;;;5.90;5.30;;;11.30;99.90;;;;;;5036585;28;20941;-69
2022/12/20 13:04:58;;;;;;;5.47;4.50;;;11.40;99.90;;;;;;5056029;28;20903;-70
2022/12/20 13:07:32;;;;;;;4.70;4.30;;;11.10;99.90;;;;;;5053982;28;20386;-71
2022/12/20 13:10:07;;;;;;;7.30;6.50;;;11.20;99.90;;;;;;5044390;28;20407;-71
2022/12/20 13:12:36;;;;;;;6.80;5.47;;;11.40;99.90;;;;;;5055937;28;20417;-70
2022/12/20 13:15:22;;;;;;;7.77;4.80;;;11.50;99.90;;;;;;5055852;28;20477;-68